Time;durP1;ratioP1;P1;durP2;ratioP2;P2;SDS_P1;SDS_P2;PMS_P1;PMS_P2;Temp;Humidity;BMP_temperature;BMP_pressure;BME280_temperature;BME280_humidity;BME280_pressure;Samples;Min_cycle;Max_cycle;Signal;HPM_P1;HPM_P2
2021/07/15 14:43:53;;;;;;;4.30;2.15;;;;;;;23.97;74.48;101117.38;3568605;39;102187;-43
2021/07/15 14:46:21;;;;;;;3.08;2.22;;;;;;;23.97;73.21;101120.16;3563542;39;104322;-41
2021/07/15 14:48:49;;;;;;;3.25;1.70;;;;;;;24.19;74.61;101118.81;3562738;39;102383;-42
2021/07/15 14:51:17;;;;;;;3.88;2.00;;;;;;;24.22;71.02;101117.38;3561816;39;102656;-41
2021/07/15 14:53:47;;;;;;;5.43;2.45;;;;;;;24.17;70.02;101126.66;3555149;39;103237;-44
2021/07/15 14:56:15;;;;;;;3.42;2.40;;;;;;;24.42;71.65;101128.25;3556980;39;102488;-41
2021/07/15 14:58:43;;;;;;;3.70;2.25;;;;;;;24.32;70.46;101135.94;3556186;39;102317;-40
2021/07/15 15:01:10;;;;;;;2.97;2.00;;;;;;;24.38;70.46;101126.38;3557158;39;102390;-39
2021/07/15 15:03:38;;;;;;;5.88;3.00;;;;;;;24.48;70.81;101133.78;3550658;39;102395;-42
2021/07/15 15:06:06;;;;;;;3.53;2.40;;;;;;;24.14;69.93;101130.03;3556869;39;102551;-41
2021/07/15 15:08:34;;;;;;;5.05;3.00;;;;;;;23.95;69.11;101130.78;3556526;39;103019;-45
2021/07/15 15:11:02;;;;;;;3.38;2.42;;;;;;;24.03;71.46;101132.13;3556151;39;102462;-39
2021/07/15 15:13:30;;;;;;;6.10;3.65;;;;;;;23.84;70.75;101135.63;3556229;39;102357;-41
2021/07/15 15:16:00;;;;;;;3.80;2.75;;;;;;;23.78;72.10;101136.81;3555496;39;103489;-41
2021/07/15 15:18:29;;;;;;;3.78;2.50;;;;;;;23.53;72.34;101143.44;3556486;39;103301;-42
2021/07/15 15:20:57;;;;;;;3.20;2.60;;;;;;;23.45;73.29;101133.78;3557685;39;103092;-45
2021/07/15 15:23:28;;;;;;;3.47;2.53;;;;;;;23.35;73.78;101137.50;3555801;39;102278;-39
2021/07/15 15:25:58;;;;;;;4.10;2.97;;;;;;;23.15;73.24;101148.78;3557042;39;102583;-42
2021/07/15 15:28:28;;;;;;;3.97;2.85;;;;;;;23.10;74.53;101150.47;3556507;39;102276;-42
2021/07/15 15:30:55;;;;;;;4.63;2.60;;;;;;;22.91;73.71;101146.72;3556437;39;102504;-42
2021/07/15 15:33:23;;;;;;;4.45;3.30;;;;;;;22.75;74.35;101152.34;3555974;39;104396;-42
2021/07/15 15:35:51;;;;;;;4.25;3.17;;;;;;;22.65;75.11;101149.66;3557184;39;102320;-42
2021/07/15 15:38:19;;;;;;;5.88;3.88;;;;;;;22.61;75.66;101149.38;3557306;39;102325;-44
2021/07/15 15:40:47;;;;;;;4.90;3.40;;;;;;;22.53;75.01;101150.00;3557542;39;102775;-41
2021/07/15 15:43:15;;;;;;;4.53;3.42;;;;;;;22.58;76.15;101149.13;3557007;39;103314;-41
2021/07/15 15:45:43;;;;;;;5.28;3.75;;;;;;;22.53;76.31;101153.59;3557042;39;102279;-42
2021/07/15 15:48:10;;;;;;;4.55;3.53;;;;;;;22.52;77.09;101160.25;3556537;39;102790;-41
2021/07/15 15:50:38;;;;;;;5.00;4.07;;;;;;;22.33;76.52;101159.22;3556908;39;102255;-41
2021/07/15 15:53:07;;;;;;;5.10;4.22;;;;;;;22.20;77.82;101163.44;3554063;39;103185;-42
2021/07/15 15:55:36;;;;;;;5.43;4.82;;;;;;;22.11;78.53;101174.31;3548446;39;102598;-43
2021/07/15 15:58:05;;;;;;;6.00;4.80;;;;;;;21.97;78.24;101172.09;3549376;39;103154;-45
2021/07/15 16:00:34;;;;;;;6.55;5.50;;;;;;;21.88;78.56;101178.50;3550150;39;102240;-43
2021/07/15 16:03:02;;;;;;;6.40;5.22;;;;;;;21.88;80.19;101173.78;3548964;39;102319;-43
2021/07/15 16:05:29;;;;;;;6.88;4.68;;;;;;;21.79;79.14;101172.72;3550187;39;102424;-42
2021/07/15 16:07:57;;;;;;;5.88;4.18;;;;;;;21.64;79.05;101182.72;3550086;39;104265;-43
2021/07/15 16:10:26;;;;;;;5.22;4.53;;;;;;;21.51;79.19;101180.47;3550087;39;102482;-43
2021/07/15 16:12:54;;;;;;;6.20;4.75;;;;;;;21.47;80.55;101176.56;3549243;39;103238;-42
2021/07/15 16:15:23;;;;;;;6.38;4.95;;;;;;;21.41;80.20;101173.81;3549308;39;102494;-42
2021/07/15 16:17:54;;;;;;;7.80;5.75;;;;;;;21.46;81.28;101170.19;3550222;39;102302;-45
2021/07/15 16:20:29;;;;;;;7.95;5.75;;;;;;;21.46;80.45;101169.34;3550211;39;102591;-42
2021/07/15 16:22:58;;;;;;;7.55;6.03;;;;;;;21.53;81.48;101169.94;3549516;39;103217;-40
2021/07/15 16:25:28;;;;;;;9.02;6.88;;;;;;;21.51;81.52;101172.97;3550069;39;102352;-42
2021/07/15 16:27:57;;;;;;;7.90;7.03;;;;;;;21.38;80.72;101176.31;3549808;39;103867;-42
2021/07/15 16:30:28;;;;;;;8.77;7.22;;;;;;;21.22;79.89;101169.94;3549388;39;102432;-41
2021/07/15 16:32:57;;;;;;;8.80;7.07;;;;;;;21.18;81.59;101182.66;3547358;39;102440;-43
2021/07/15 16:35:26;;;;;;;9.32;7.85;;;;;;;21.04;81.13;101186.00;3549295;39;102188;-40
2021/07/15 16:37:54;;;;;;;9.13;7.88;;;;;;;20.96;82.22;101190.13;3550277;39;102311;-41
2021/07/15 16:40:23;;;;;;;12.00;8.93;;;;;;;20.85;82.80;101191.22;3549030;39;103475;-43
2021/07/15 16:42:51;;;;;;;9.93;8.90;;;;;;;20.83;84.17;101191.47;3548544;39;103254;-41
2021/07/15 16:45:25;;;;;;;13.25;9.40;;;;;;;20.70;82.45;101186.44;3550688;39;102940;-41
2021/07/15 16:47:53;;;;;;;11.20;8.75;;;;;;;20.75;83.77;101188.38;3549888;39;102321;-43
2021/07/15 16:50:22;;;;;;;11.70;9.20;;;24.70;99.90;;;20.66;83.18;101197.22;3550009;39;102432;-42
2021/07/15 16:52:53;;;;;;;11.20;9.38;;;22.00;99.90;;;20.68;84.16;101191.41;3547134;39;102584;-42
2021/07/15 16:55:22;;;;;;;13.00;9.32;;;21.90;99.90;;;20.64;83.61;101190.28;3547594;39;103235;-44
2021/07/15 16:57:51;;;;;;;13.60;10.48;;;21.80;99.90;;;20.62;84.06;101190.56;3540219;39;102291;-42
2021/07/15 17:00:22;;;;;;;11.95;9.77;;;21.80;99.90;;;20.51;84.03;101189.69;3539532;39;102977;-43
2021/07/15 17:03:08;;;;;;;15.35;12.25;;;21.70;99.90;;;20.49;84.39;101189.13;3538659;39;102791;-42
2021/07/15 17:05:36;;;;;;;18.90;13.73;;;21.70;99.90;;;20.45;83.57;101190.78;3539326;39;102536;-41
2021/07/15 17:08:04;;;;;;;;;;;21.70;99.90;;;20.45;85.53;101187.16;3540393;39;102717;-42
2021/07/15 17:10:31;;;;;;;13.88;10.27;;;21.60;99.90;;;20.38;85.57;101191.03;3539963;39;102133;-42
2021/07/15 17:12:59;;;;;;;15.15;11.07;;;21.60;99.90;;;20.37;86.05;101186.59;3539667;39;104255;-41
2021/07/15 17:15:26;;;;;;;;;;;21.60;99.90;;;20.35;85.01;101187.94;3540381;39;102421;-41
2021/07/15 17:17:54;;;;;;;12.93;10.20;;;21.60;99.90;;;20.29;84.65;101205.66;3540224;39;102233;-42
2021/07/15 17:20:21;;;;;;;;;;;21.50;99.90;;;20.23;84.52;101205.63;3540444;39;102426;-43
2021/07/15 17:22:49;;;;;;;15.20;11.05;;;21.40;99.90;;;20.23;84.80;101204.78;3539738;39;103065;-42
2021/07/15 17:25:17;;;;;;;14.63;10.85;;;21.40;99.90;;;20.12;85.04;101209.41;3539512;39;102465;-41
2021/07/15 17:27:44;;;;;;;18.35;13.00;;;21.30;99.90;;;20.08;84.63;101202.75;3539784;39;102167;-41
2021/07/15 17:30:13;;;;;;;17.83;12.93;;;21.30;99.90;;;20.03;85.36;101206.34;3539415;39;102128;-44
2021/07/15 17:32:41;;;;;;;18.50;11.73;;;21.30;99.90;;;19.98;86.00;101209.91;3539454;39;103309;-41
2021/07/15 17:35:09;;;;;;;18.60;11.60;;;21.20;99.90;;;20.03;86.52;101214.66;3539771;39;102246;-46
2021/07/15 17:37:36;;;;;;;14.90;10.50;;;21.30;99.90;;;20.02;86.50;101228.75;3540367;39;102181;-43
2021/07/15 17:40:06;;;;;;;;;;;21.20;99.90;;;19.98;87.12;101226.53;3540445;39;102131;-41
2021/07/15 17:42:33;;;;;;;;;;;21.20;99.90;;;19.95;87.53;101232.59;3540394;39;102990;-42
2021/07/15 17:45:01;;;;;;;17.13;11.77;;;21.20;99.90;;;19.92;86.47;101235.91;3539940;39;102748;-41
2021/07/15 17:47:29;;;;;;;15.90;11.07;;;21.10;99.90;;;20.00;87.29;101236.50;3539929;39;102333;-41
2021/07/15 17:49:56;;;;;;;18.95;13.07;;;21.20;99.90;;;19.93;87.31;101248.66;3539611;39;102198;-42
2021/07/15 17:52:23;;;;;;;19.25;13.70;;;21.10;99.90;;;19.91;87.96;101237.00;3539635;39;104292;-42
2021/07/15 17:54:51;;;;;;;20.55;13.27;;;21.10;99.90;;;19.89;87.91;101241.94;3539496;39;102452;-41
2021/07/15 17:57:18;;;;;;;24.25;17.63;;;21.10;99.90;;;19.75;87.66;101235.16;3539565;39;103348;-42
2021/07/15 17:59:46;;;;;;;28.63;19.65;;;21.10;99.90;;;19.70;88.25;101241.50;3540224;39;102323;-41
2021/07/15 18:02:14;;;;;;;25.60;17.38;;;21.00;99.90;;;19.73;89.66;101240.97;3539142;39;102248;-44
2021/07/15 18:04:41;;;;;;;24.98;16.98;;;21.00;99.90;;;19.77;89.74;101241.28;3539854;39;102842;-42
2021/07/15 18:07:09;;;;;;;25.23;17.25;;;21.00;99.90;;;19.76;90.09;101239.59;3539236;39;102197;-41
2021/07/15 18:09:36;;;;;;;23.85;16.98;;;21.00;99.90;;;19.69;89.09;101248.97;3539356;39;103438;-41
2021/07/15 18:12:04;;;;;;;31.40;20.30;;;20.90;99.90;;;19.61;89.05;101251.38;3539747;39;102242;-41
2021/07/15 18:14:32;;;;;;;26.98;19.95;;;20.90;99.90;;;19.58;89.54;101254.69;3539758;39;102379;-41
2021/07/15 18:16:59;;;;;;;24.75;18.25;;;20.80;99.90;;;19.57;90.71;101253.84;3539228;39;102541;-42
2021/07/15 18:19:26;;;;;;;;;;;20.80;99.90;;;19.55;90.96;101262.41;3540192;39;102452;-42
2021/07/15 18:21:54;;;;;;;28.13;17.20;;;20.80;99.90;;;19.57;89.72;101258.56;3539938;39;102392;-41
2021/07/15 18:24:22;;;;;;;25.40;16.00;;;20.80;99.90;;;19.53;89.04;101256.31;3539398;39;102128;-42
2021/07/15 18:26:49;;;;;;;28.92;18.55;;;20.80;99.90;;;19.47;89.84;101256.53;3539154;39;102205;-43
2021/07/15 18:29:17;;;;;;;33.03;19.85;;;20.70;99.90;;;19.40;89.71;101254.81;3539461;39;102460;-43
2021/07/15 18:31:44;;;;;;;26.50;17.83;;;20.60;99.90;;;19.35;89.94;101254.72;3539431;39;102797;-42
2021/07/15 18:34:12;;;;;;;26.27;17.05;;;20.60;99.90;;;19.29;90.87;101253.03;3539463;39;102387;-42
2021/07/15 18:36:39;;;;;;;28.67;18.77;;;20.60;99.90;;;19.14;91.20;101259.22;3539808;39;103223;-44
2021/07/15 18:39:09;;;;;;;28.52;18.52;;;20.50;99.90;;;19.20;92.41;101271.19;3539200;39;102615;-41
2021/07/15 18:41:37;;;;;;;26.00;17.88;;;20.40;99.90;;;19.09;91.64;101276.59;3538762;39;103413;-42
2021/07/15 18:44:06;;;;;;;29.70;17.35;;;20.40;99.90;;;19.08;92.16;101272.16;3538803;39;102134;-41
2021/07/15 18:46:33;;;;;;;24.77;17.08;;;20.40;99.90;;;19.05;92.12;101272.66;3539335;39;102373;-42
2021/07/15 18:49:02;;;;;;;25.27;16.02;;;20.30;99.90;;;19.04;92.56;101290.34;3539477;39;102517;-41
2021/07/15 18:51:30;;;;;;;21.88;15.30;;;20.30;99.90;;;18.97;91.88;101298.00;3539367;39;102311;-44
2021/07/15 18:53:57;;;;;;;24.05;15.27;;;20.30;99.90;;;18.84;91.85;101299.22;3538913;39;102418;-39
2021/07/15 18:56:25;;;;;;;24.13;14.82;;;20.20;99.90;;;18.78;92.25;101305.78;3538603;39;103171;-42
2021/07/15 18:58:52;;;;;;;22.60;14.85;;;20.10;99.90;;;18.70;92.76;101309.81;3539030;39;102380;-44
2021/07/15 19:01:20;;;;;;;20.83;14.65;;;20.00;99.90;;;18.66;93.32;101308.66;3538494;39;102384;-42
2021/07/15 19:03:47;;;;;;;;;;;19.90;99.90;;;18.56;93.85;101312.09;3539633;39;102481;-42
2021/07/15 19:06:14;;;;;;;22.17;16.02;;;19.80;99.90;;;18.61;95.40;101316.88;3545924;39;103141;-44
2021/07/15 19:08:42;;;;;;;27.73;16.10;;;19.90;99.90;;;18.55;95.05;101314.00;3538774;39;102181;-42
2021/07/15 19:11:09;;;;;;;24.02;15.95;;;19.90;99.90;;;18.59;94.51;101317.13;3539135;39;103909;-42
2021/07/15 19:13:37;;;;;;;21.48;14.90;;;19.80;99.90;;;18.55;94.67;101321.47;3538462;39;102571;-42
2021/07/15 19:16:06;;;;;;;23.65;16.77;;;19.80;99.90;;;18.51;94.87;101323.91;3538973;39;102836;-41
2021/07/15 19:18:34;;;;;;;26.95;17.35;;;19.80;99.90;;;18.50;94.75;101330.53;3538901;39;102424;-43
2021/07/15 19:21:02;;;;;;;27.13;17.27;;;19.80;99.90;;;18.44;94.75;101334.31;3538655;39;102871;-42
2021/07/15 19:23:29;;;;;;;;;;;19.70;99.90;;;18.48;95.57;101327.19;3540014;39;102670;-42
2021/07/15 19:25:57;;;;;;;28.50;18.20;;;19.70;99.90;;;18.44;95.62;101326.03;3539074;39;102242;-41
2021/07/15 19:28:24;;;;;;;;;;;19.70;99.90;;;18.51;96.28;101328.63;3539533;39;102361;-41
2021/07/15 19:31:17;;;;;;;23.38;16.35;;;19.70;99.90;;;18.42;95.64;101322.69;3541597;39;103268;-42
2021/07/15 19:33:47;;;;;;;22.52;16.00;;;19.70;99.90;;;18.40;95.73;101324.88;3533925;39;103689;-38
2021/07/15 19:36:15;;;;;;;24.83;16.33;;;19.70;99.90;;;18.42;96.46;101333.72;3530757;39;103293;-38
2021/07/15 19:38:44;;;;;;;21.17;14.63;;;19.70;99.90;;;18.44;97.68;101334.31;3540446;39;102532;-38
2021/07/15 19:41:13;;;;;;;22.10;15.88;;;19.70;99.90;;;18.48;97.84;101332.72;3541794;39;102188;-39
2021/07/15 19:43:42;;;;;;;22.40;15.25;;;19.80;99.90;;;18.49;97.74;101336.31;3550316;39;103358;-39
2021/07/15 19:46:10;;;;;;;22.38;15.60;;;19.80;99.90;;;18.53;97.22;101343.81;3550330;39;102374;-39
2021/07/15 19:48:38;;;;;;;;;;;19.80;99.90;;;18.51;96.89;101342.44;3550586;39;102726;-39
2021/07/15 19:51:06;;;;;;;26.08;17.08;;;19.80;99.90;;;18.51;96.09;101342.44;3550064;39;102434;-39
2021/07/15 19:53:33;;;;;;;25.90;17.77;;;19.80;99.90;;;18.49;95.02;101342.66;3550441;39;103041;-38
2021/07/15 19:56:01;;;;;;;27.80;18.33;;;19.70;99.90;;;18.46;95.13;101351.47;3550042;39;103440;-41
2021/07/15 19:58:28;;;;;;;28.10;18.95;;;19.70;99.90;;;18.44;95.58;101353.66;3550048;39;103491;-39
2021/07/15 20:00:56;;;;;;;31.45;21.98;;;19.70;99.90;;;18.29;94.35;101365.28;3549974;39;102627;-39
2021/07/15 20:03:23;;;;;;;36.67;24.25;;;19.60;99.90;;;18.30;94.76;101363.34;3550118;39;102294;-39
2021/07/15 20:05:51;;;;;;;37.15;23.27;;;19.60;99.90;;;18.28;95.13;101371.06;3549982;39;102175;-39
2021/07/15 20:08:22;;;;;;;;;;;19.50;99.90;;;18.24;94.49;101384.53;3541609;39;102412;-39
2021/07/15 20:10:50;;;;;;;41.25;26.10;;;19.50;99.90;;;18.22;95.10;101395.81;3550300;39;103380;-39
2021/07/15 20:13:19;;;;;;;38.20;25.95;;;19.50;99.90;;;18.16;95.19;101385.78;3550030;39;102762;-39
2021/07/15 20:15:46;;;;;;;39.90;25.20;;;19.40;99.90;;;18.22;96.17;101376.50;3550337;39;104126;-39
2021/07/15 20:18:14;;;;;;;38.05;24.90;;;19.50;99.90;;;18.21;95.84;101382.28;3550201;39;102199;-38
2021/07/15 20:20:44;;;;;;;37.80;23.02;;;19.50;99.90;;;18.19;95.46;101378.94;3549960;39;103075;-39
2021/07/15 20:23:12;;;;;;;33.08;22.98;;;19.40;99.90;;;18.08;95.51;101362.19;3550273;39;102486;-41
2021/07/15 20:25:40;;;;;;;35.72;21.73;;;19.40;99.90;;;18.17;95.20;101367.28;3550018;39;103325;-39
2021/07/15 20:28:09;;;;;;;32.05;20.75;;;19.40;99.90;;;18.12;96.08;101384.63;3549399;39;102392;-39
2021/07/15 20:30:39;;;;;;;31.30;21.63;;;19.40;99.90;;;18.11;95.09;101385.72;3549803;39;103727;-39
2021/07/15 20:33:08;;;;;;;33.22;21.23;;;19.40;99.90;;;18.14;94.82;101390.72;3550034;39;102109;-39
2021/07/15 20:35:39;;;;;;;32.10;21.45;;;19.40;99.90;;;18.10;94.75;101390.38;3550005;39;102318;-39
2021/07/15 20:38:11;;;;;;;31.15;20.88;;;19.40;99.90;;;18.09;94.03;101397.00;3550503;39;102339;-38
2021/07/15 20:40:38;;;;;;;33.10;20.15;;;19.30;99.90;;;18.08;93.87;101398.06;3549552;39;102277;-39
2021/07/15 20:43:07;;;;;;;29.25;19.45;;;19.40;99.90;;;18.16;93.84;101405.13;3548870;39;102109;-39
2021/07/15 20:45:34;;;;;;;35.97;19.60;;;19.40;99.90;;;18.11;93.68;101410.56;3549715;39;102328;-38
2021/07/15 20:48:02;;;;;;;26.77;17.13;;;19.40;99.90;;;18.06;93.59;101413.22;3550042;39;102219;-38
2021/07/15 20:50:29;;;;;;;;;;;19.30;99.90;;;18.00;92.83;101415.03;3550636;39;102305;-38
2021/07/15 20:52:57;;;;;;;23.52;14.45;;;19.30;99.90;;;17.98;92.41;101426.28;3550228;39;102200;-39
2021/07/15 20:55:25;;;;;;;24.63;14.48;;;19.30;99.90;;;17.98;92.52;101422.72;3549851;39;102954;-39
2021/07/15 20:57:52;;;;;;;19.80;13.35;;;19.30;99.90;;;18.05;92.76;101423.44;3550249;39;103099;-39
2021/07/15 21:00:20;;;;;;;20.05;12.40;;;19.30;99.90;;;18.00;91.38;101419.69;3550033;39;102402;-38
2021/07/15 21:02:49;;;;;;;18.75;10.85;;;19.30;99.90;;;18.01;92.10;101422.25;3550187;39;102441;-39
2021/07/15 21:05:17;;;;;;;18.13;10.80;;;19.30;99.90;;;18.02;91.35;101429.44;3549657;39;102255;-39
2021/07/15 21:07:46;;;;;;;19.73;10.98;;;19.30;99.90;;;18.00;90.29;101433.50;3550037;39;102124;-39
2021/07/15 21:10:16;;;;;;;15.60;9.60;;;19.30;99.90;;;17.97;89.80;101434.84;3549497;39;103554;-39
2021/07/15 21:12:44;;;;;;;15.75;9.68;;;19.20;99.90;;;17.94;90.50;101436.16;3549750;39;102366;-39
2021/07/15 21:15:12;;;;;;;18.65;9.13;;;19.20;99.90;;;17.95;89.97;101443.34;3550142;39;103274;-38
2021/07/15 21:17:41;;;;;;;14.23;8.27;;;19.20;99.90;;;17.94;89.51;101441.69;3550243;39;102415;-39
2021/07/15 21:20:12;;;;;;;15.80;8.73;;;19.20;99.90;;;18.00;89.63;101447.28;3550134;39;102122;-39
2021/07/15 21:22:40;;;;;;;14.38;8.68;;;19.30;99.90;;;18.01;90.57;101455.38;3549801;39;102390;-38
2021/07/15 21:25:10;;;;;;;15.85;8.93;;;19.30;99.90;;;17.97;89.08;101452.22;3549412;39;104274;-39
2021/07/15 21:27:38;;;;;;;13.90;8.18;;;19.20;99.90;;;18.00;90.63;101450.91;3550258;39;102118;-39
2021/07/15 21:30:08;;;;;;;13.98;8.57;;;19.30;99.90;;;18.00;90.33;101455.56;3550079;39;103096;-39
2021/07/15 21:32:37;;;;;;;14.48;8.55;;;19.30;99.90;;;17.96;89.16;101456.06;3549683;39;103951;-39
2021/07/15 21:35:20;;;;;;;13.25;8.20;;;19.20;99.90;;;17.94;90.26;101449.97;3549868;39;102186;-39
2021/07/15 21:37:47;;;;;;;13.48;8.60;;;19.20;99.90;;;17.95;89.99;101451.63;3549661;39;102422;-38
2021/07/15 21:40:16;;;;;;;15.13;8.27;;;19.20;99.90;;;17.95;90.86;101450.81;3550179;39;102291;-38
2021/07/15 21:42:43;;;;;;;17.00;10.18;;;19.20;99.90;;;17.92;91.26;101456.84;3550034;39;102633;-39
2021/07/15 21:45:12;;;;;;;17.25;10.00;;;19.20;99.90;;;17.92;91.55;101463.19;3549478;39;103552;-39
2021/07/15 21:47:40;;;;;;;15.40;10.00;;;19.20;99.90;;;17.93;92.66;101453.00;3549870;39;102275;-39
2021/07/15 21:50:08;;;;;;;19.33;10.80;;;19.20;99.90;;;17.90;93.10;101456.22;3549683;39;103223;-39
2021/07/15 21:52:35;;;;;;;18.52;10.60;;;19.20;99.90;;;17.87;92.11;101454.81;3548925;39;102231;-39
2021/07/15 21:55:04;;;;;;;17.25;10.63;;;19.20;99.90;;;17.87;92.24;101463.09;3549772;39;104268;-40
2021/07/15 21:57:32;;;;;;;15.65;10.98;;;19.10;99.90;;;17.89;92.03;101462.81;3550051;39;102614;-39
2021/07/15 22:00:01;;;;;;;14.68;9.90;;;19.10;99.90;;;17.90;93.23;101472.78;3549601;39;103166;-39
2021/07/15 22:02:30;;;;;;;17.92;10.15;;;19.20;99.90;;;17.91;93.15;101475.31;3549489;39;102301;-39
2021/07/15 22:04:58;;;;;;;16.65;10.32;;;19.20;99.90;;;17.90;93.93;101479.16;3549232;39;103158;-39
2021/07/15 22:07:25;;;;;;;19.35;10.13;;;19.20;99.90;;;17.94;93.17;101474.81;3549554;39;103327;-39
2021/07/15 22:09:53;;;;;;;15.75;10.15;;;19.20;99.90;;;17.93;91.88;101480.59;3549310;39;102643;-39
2021/07/15 22:12:20;;;;;;;16.90;9.63;;;19.10;99.90;;;17.95;90.91;101479.25;3549157;39;102228;-39
2021/07/15 22:14:47;;;;;;;13.45;8.75;;;19.20;99.90;;;17.99;90.93;101479.59;3549502;39;102248;-38
2021/07/15 22:17:16;;;;;;;12.55;7.80;;;19.20;99.90;;;17.96;90.48;101478.16;3549594;39;102730;-39
2021/07/15 22:19:43;;;;;;;14.82;8.43;;;19.20;99.90;;;17.93;89.95;101470.38;3549231;39;103255;-39
2021/07/15 22:22:13;;;;;;;15.80;7.82;;;19.20;99.90;;;17.88;90.24;101475.81;3549517;39;102287;-39
2021/07/15 22:24:43;;;;;;;16.02;8.02;;;19.10;99.90;;;17.91;89.98;101480.81;3549449;39;102155;-39
2021/07/15 22:27:13;;;;;;;18.13;7.90;;;19.10;99.90;;;17.88;89.03;101481.31;3549430;39;102281;-39
2021/07/15 22:29:46;;;;;;;14.40;7.28;;;19.10;99.90;;;17.88;90.42;101484.09;3549476;39;102209;-39
2021/07/15 22:32:14;;;;;;;10.68;6.38;;;19.10;99.90;;;17.89;88.93;101485.75;3549834;39;102376;-39
2021/07/15 22:34:41;;;;;;;13.60;7.00;;;19.10;99.90;;;17.84;88.14;101477.38;3549218;39;104722;-40
2021/07/15 22:37:09;;;;;;;14.32;7.93;;;19.10;99.90;;;17.81;88.60;101477.88;3549734;39;103327;-39
2021/07/15 22:39:37;;;;;;;11.00;6.18;;;19.10;99.90;;;17.81;89.22;101486.16;3549436;39;102915;-39
2021/07/15 22:42:05;;;;;;;11.90;6.00;;;19.10;99.90;;;17.74;88.78;101482.69;3549714;39;102249;-38
2021/07/15 22:44:32;;;;;;;12.70;6.50;;;19.00;99.90;;;17.71;88.85;101486.78;3549256;39;103102;-39
2021/07/15 22:46:59;;;;;;;13.90;6.57;;;19.00;99.90;;;17.79;89.25;101493.84;3549431;39;102711;-39
2021/07/15 22:49:27;;;;;;;11.80;6.60;;;19.00;99.90;;;17.76;89.23;101494.31;3549411;39;104080;-39
2021/07/15 22:51:54;;;;;;;13.23;6.65;;;19.00;99.90;;;17.73;89.20;101492.03;3549044;39;102350;-39
2021/07/15 22:54:22;;;;;;;12.38;6.55;;;19.00;99.90;;;17.69;88.38;101487.00;3549262;39;103155;-39
2021/07/15 22:56:49;;;;;;;13.57;6.65;;;18.90;99.90;;;17.74;89.37;101494.56;3549059;39;102896;-40
2021/07/15 22:59:16;;;;;;;13.52;6.90;;;18.90;99.90;;;17.69;89.05;101492.53;3549589;39;103145;-39
2021/07/15 23:01:44;;;;;;;12.45;7.25;;;18.90;99.90;;;17.72;88.84;101491.22;3549001;39;102271;-39
2021/07/15 23:04:11;;;;;;;13.50;7.38;;;19.00;99.90;;;17.67;89.29;101497.47;3549452;39;102213;-38
2021/07/15 23:06:39;;;;;;;13.63;8.35;;;18.90;99.90;;;17.65;89.86;101496.03;3550206;39;102368;-39
2021/07/15 23:09:06;;;;;;;18.17;9.20;;;18.90;99.90;;;17.70;90.31;101504.41;3550639;39;102178;-39
2021/07/15 23:11:33;;;;;;;14.30;8.85;;;18.90;99.90;;;17.65;90.54;101507.91;3550645;39;102416;-39
2021/07/15 23:14:01;;;;;;;16.13;9.10;;;18.90;99.90;;;17.59;89.94;101506.13;3550613;39;103696;-38
2021/07/15 23:16:29;;;;;;;15.43;8.77;;;18.90;99.90;;;17.66;90.68;101511.50;3550393;39;102073;-39
2021/07/15 23:18:56;;;;;;;13.68;8.90;;;18.90;99.90;;;17.71;90.18;101511.63;3550361;39;102171;-39
2021/07/15 23:21:24;;;;;;;15.50;8.70;;;18.90;99.90;;;17.58;88.72;101507.22;3550496;39;102846;-39
2021/07/15 23:23:51;;;;;;;14.82;8.05;;;18.90;99.90;;;17.58;89.99;101501.69;3550232;39;103203;-38
2021/07/15 23:26:18;;;;;;;13.98;8.23;;;18.90;99.90;;;17.56;89.66;101511.28;3550109;39;102585;-39
2021/07/15 23:28:46;;;;;;;15.30;7.60;;;18.80;99.90;;;17.55;90.55;101510.47;3550452;39;103124;-39
2021/07/15 23:31:13;;;;;;;12.07;7.97;;;18.80;99.90;;;17.54;88.99;101511.53;3550123;39;102426;-39
2021/07/15 23:33:40;;;;;;;13.88;7.47;;;18.80;99.90;;;17.51;89.83;101509.28;3550344;39;102152;-38
2021/07/15 23:36:08;;;;;;;12.57;7.13;;;18.80;99.90;;;17.48;89.68;101516.09;3550260;39;102357;-39
2021/07/15 23:38:35;;;;;;;15.60;7.95;;;18.80;99.90;;;17.42;88.87;101513.47;3550573;39;102331;-39
2021/07/15 23:41:02;;;;;;;15.57;7.88;;;18.70;99.90;;;17.38;89.48;101515.88;3550263;39;102412;-39
2021/07/15 23:43:30;;;;;;;13.07;7.20;;;18.70;99.90;;;17.36;89.30;101521.63;3550385;39;103331;-39
2021/07/15 23:45:57;;;;;;;12.63;6.63;;;18.70;99.90;;;17.36;89.88;101521.63;3550190;39;102463;-39
2021/07/15 23:48:24;;;;;;;11.13;6.20;;;18.70;99.90;;;17.36;89.10;101529.03;3550321;39;102979;-39
2021/07/15 23:50:52;;;;;;;13.63;6.88;;;18.60;99.90;;;17.40;89.21;101520.06;3550387;39;102365;-39
2021/07/15 23:53:19;;;;;;;13.10;6.20;;;18.70;99.90;;;17.40;89.20;101531.09;3550467;39;103097;-39
2021/07/15 23:55:47;;;;;;;14.63;6.47;;;18.70;99.90;;;17.33;88.02;101527.63;3550167;39;103321;-39
2021/07/15 23:58:14;;;;;;;11.65;6.15;;;18.60;99.90;;;17.29;88.18;101526.44;3549860;39;103174;-39
